createdAt,value
2019-03-18T00:01:07.630Z,5.10
2019-03-18T00:03:14.379Z,5.20
2019-03-18T00:05:21.128Z,5.15
2019-03-18T00:07:27.782Z,4.75
2019-03-18T00:09:34.474Z,4.95
2019-03-18T00:11:41.124Z,3.85
2019-03-18T00:13:47.837Z,3.98
2019-03-18T00:15:54.444Z,3.35
2019-03-18T00:18:01.162Z,3.30
2019-03-18T00:20:10.512Z,3.27
2019-03-18T00:22:18.189Z,3.62
2019-03-18T00:24:24.877Z,2.70
2019-03-18T00:26:32.616Z,2.52
2019-03-18T00:28:39.285Z,2.45
2019-03-18T00:30:45.882Z,1.92
2019-03-18T00:32:52.455Z,1.98
2019-03-18T00:34:59.131Z,1.60
2019-03-18T00:37:06.795Z,1.67
2019-03-18T00:39:13.449Z,1.40
2019-03-18T00:41:20.189Z,1.17
2019-03-18T00:43:26.840Z,1.22
2019-03-18T00:45:33.483Z,1.30
2019-03-18T00:47:40.158Z,1.37
2019-03-18T00:49:46.814Z,1.02
2019-03-18T00:51:53.471Z,0.98
2019-03-18T00:54:00.155Z,0.90
2019-03-18T00:56:06.960Z,0.80
2019-03-18T00:58:13.612Z,0.98
2019-03-18T01:00:21.295Z,0.78
2019-03-18T01:02:27.938Z,0.85
2019-03-18T01:04:34.603Z,0.82
2019-03-18T01:06:41.279Z,1.00
2019-03-18T01:08:47.937Z,0.80
2019-03-18T01:10:54.590Z,0.75
2019-03-18T01:13:01.349Z,1.25
2019-03-18T01:15:10.593Z,0.90
2019-03-18T01:17:17.305Z,1.10
2019-03-18T01:19:23.984Z,0.90
2019-03-18T01:21:30.634Z,0.80
2019-03-18T01:23:37.289Z,0.95
2019-03-18T01:25:44.037Z,0.90
2019-03-18T01:27:50.684Z,1.15
2019-03-18T01:29:57.324Z,1.22
2019-03-18T01:32:05.252Z,1.15
2019-03-18T01:34:11.904Z,1.25
2019-03-18T01:36:18.562Z,1.12
2019-03-18T01:38:25.245Z,1.12
2019-03-18T01:40:31.892Z,1.30
2019-03-18T01:42:38.548Z,1.22
2019-03-18T01:44:45.161Z,1.30
2019-03-18T01:46:51.806Z,1.30
2019-03-18T01:48:58.451Z,1.72
2019-03-18T01:51:05.134Z,2.17
2019-03-18T01:53:11.775Z,2.12
2019-03-18T01:55:18.425Z,2.08
2019-03-18T01:57:25.109Z,1.90
2019-03-18T01:59:31.773Z,1.90
2019-03-18T02:01:38.420Z,1.42
2019-03-18T02:03:45.123Z,1.65
2019-03-18T02:05:51.912Z,1.70
2019-03-18T02:07:58.573Z,1.45
2019-03-18T02:10:09.251Z,1.37
2019-03-18T02:12:15.899Z,1.40
2019-03-18T02:14:22.549Z,1.07
2019-03-18T02:16:29.378Z,1.05
2019-03-18T02:18:36.099Z,1.00
2019-03-18T02:20:42.868Z,1.00
2019-03-18T02:22:49.618Z,0.70
2019-03-18T02:24:56.267Z,1.02
2019-03-18T02:27:02.924Z,0.68
2019-03-18T02:29:09.594Z,0.98
2019-03-18T02:31:16.346Z,1.25
2019-03-18T02:33:23.015Z,1.45
2019-03-18T02:35:29.674Z,1.10
2019-03-18T02:37:36.364Z,1.57
2019-03-18T02:39:43.095Z,1.40
2019-03-18T02:41:49.769Z,1.70
2019-03-18T02:43:56.415Z,1.50
2019-03-18T02:46:09.919Z,1.45
2019-03-18T02:48:11.553Z,1.42
2019-03-18T02:50:18.276Z,1.27
2019-03-18T02:52:24.928Z,1.10
2019-03-18T02:54:31.619Z,1.00
2019-03-18T02:56:38.261Z,0.80
2019-03-18T02:58:44.898Z,0.90
2019-03-18T03:00:51.586Z,0.80
2019-03-18T03:02:58.222Z,0.90
2019-03-18T03:05:06.578Z,0.68
2019-03-18T03:07:13.334Z,0.90
2019-03-18T03:09:19.990Z,0.80
2019-03-18T03:11:26.590Z,0.70
2019-03-18T03:13:33.248Z,0.70
2019-03-18T03:15:39.898Z,0.78
2019-03-18T03:17:46.558Z,1.10
2019-03-18T03:19:53.225Z,1.25
2019-03-18T03:21:59.944Z,1.30
2019-03-18T03:24:06.597Z,1.40
2019-03-18T03:26:13.272Z,1.25
2019-03-18T03:28:19.928Z,1.42
2019-03-18T03:30:26.747Z,1.37
2019-03-18T03:32:33.476Z,1.15
2019-03-18T03:34:40.127Z,1.02
2019-03-18T03:36:46.771Z,1.40
2019-03-18T03:38:53.471Z,0.98
2019-03-18T03:41:00.225Z,1.07
2019-03-18T03:43:07.001Z,1.10
2019-03-18T03:45:15.335Z,1.15
2019-03-18T03:47:21.974Z,0.90
2019-03-18T03:49:28.631Z,0.98
2019-03-18T03:51:35.402Z,1.15
2019-03-18T03:53:42.053Z,1.10
2019-03-18T03:55:48.702Z,1.30
2019-03-18T03:57:55.584Z,1.00
2019-03-18T04:00:02.231Z,1.30
2019-03-18T04:02:09.090Z,1.32
2019-03-18T04:04:15.760Z,1.25
2019-03-18T04:06:22.405Z,1.20
2019-03-18T04:08:29.094Z,1.40
2019-03-18T04:10:35.812Z,1.42
2019-03-18T04:12:42.456Z,1.47
2019-03-18T04:14:49.188Z,1.80
2019-03-18T04:17:03.135Z,1.87
2019-03-18T04:19:04.271Z,1.92
2019-03-18T04:21:10.923Z,2.10
2019-03-18T04:23:17.606Z,1.85
2019-03-18T04:25:24.329Z,1.75
2019-03-18T04:27:30.982Z,1.85
2019-03-18T04:29:37.660Z,1.65
2019-03-18T04:31:44.303Z,1.80
2019-03-18T04:33:50.950Z,2.02
2019-03-18T04:35:57.629Z,2.50
2019-03-18T04:38:04.282Z,2.10
2019-03-18T04:40:12.126Z,4.25
2019-03-18T04:42:18.817Z,5.05
2019-03-18T04:44:25.454Z,4.10
2019-03-18T04:46:32.101Z,3.70
2019-03-18T04:48:38.781Z,3.02
2019-03-18T04:50:45.440Z,2.37
2019-03-18T04:52:52.088Z,2.10
2019-03-18T04:54:58.833Z,2.27
2019-03-18T04:57:05.495Z,4.25
2019-03-18T04:59:12.150Z,5.40
2019-03-18T05:01:18.756Z,8.65
2019-03-18T05:03:25.416Z,5.17
2019-03-18T05:05:32.076Z,7.37
2019-03-18T05:07:38.752Z,6.90
2019-03-18T05:09:45.433Z,4.60
2019-03-18T05:11:52.080Z,3.00
2019-03-18T05:13:58.766Z,2.90
2019-03-18T05:16:05.396Z,2.50
2019-03-18T05:18:12.054Z,2.95
2019-03-18T05:20:18.719Z,1.95
2019-03-18T05:22:25.462Z,2.02
2019-03-18T05:24:32.115Z,1.80
2019-03-18T05:26:38.826Z,1.70
2019-03-18T05:28:45.474Z,2.20
2019-03-18T05:30:52.136Z,1.80
2019-03-18T05:32:58.889Z,2.00
2019-03-18T05:35:06.536Z,2.17
2019-03-18T05:37:13.185Z,2.37
2019-03-18T05:39:19.936Z,3.08
2019-03-18T05:41:26.580Z,2.85
2019-03-18T05:43:33.546Z,2.67
2019-03-18T05:45:40.230Z,2.50
2019-03-18T05:47:46.878Z,2.40
2019-03-18T05:49:54.052Z,2.58
2019-03-18T05:52:00.983Z,2.58
2019-03-18T05:54:07.699Z,3.08
2019-03-18T05:56:15.346Z,2.60
2019-03-18T05:58:22.093Z,2.52
2019-03-18T06:00:28.743Z,3.22
2019-03-18T06:02:35.388Z,3.90
2019-03-18T06:04:42.097Z,6.70
2019-03-18T06:06:48.738Z,4.08
2019-03-18T06:08:55.474Z,2.92
2019-03-18T06:11:02.150Z,3.10
2019-03-18T06:13:08.869Z,3.45
2019-03-18T06:15:15.528Z,2.85
2019-03-18T06:17:22.194Z,3.80
2019-03-18T06:19:28.849Z,3.05
2019-03-18T06:21:35.501Z,3.40
2019-03-18T06:23:42.176Z,3.87
2019-03-18T06:25:48.887Z,4.95
2019-03-18T06:27:55.544Z,4.53
2019-03-18T06:30:02.152Z,4.42
2019-03-18T06:32:09.797Z,3.22
2019-03-18T06:34:16.460Z,3.70
2019-03-18T06:36:23.137Z,3.50
2019-03-18T06:38:30.963Z,4.72
2019-03-18T06:40:37.620Z,3.98
2019-03-18T06:42:44.365Z,6.60
2019-03-18T06:44:51.002Z,7.42
2019-03-18T06:46:57.661Z,5.62
2019-03-18T06:49:04.347Z,5.37
2019-03-18T06:51:11.004Z,4.50
2019-03-18T06:53:17.640Z,4.72
2019-03-18T06:55:24.247Z,4.37
2019-03-18T06:57:30.903Z,4.90
2019-03-18T06:59:37.557Z,4.60
2019-03-18T07:01:44.232Z,4.12
2019-03-18T07:03:50.953Z,4.83
2019-03-18T07:05:57.605Z,6.75
2019-03-18T07:08:04.280Z,5.08
2019-03-18T07:10:14.165Z,5.80
2019-03-18T07:12:20.821Z,6.78
2019-03-18T07:14:27.565Z,6.83
2019-03-18T07:16:34.227Z,8.15
2019-03-18T07:18:40.877Z,7.53
2019-03-18T07:20:47.561Z,7.62
2019-03-18T07:22:54.215Z,7.05
2019-03-18T07:25:00.867Z,5.83
2019-03-18T07:27:07.547Z,6.62
2019-03-18T07:29:14.205Z,7.00
2019-03-18T07:31:20.865Z,7.20
2019-03-18T07:33:27.546Z,5.83
2019-03-18T07:35:34.205Z,4.70
2019-03-18T07:37:40.859Z,5.40
2019-03-18T07:39:47.654Z,6.60
2019-03-18T07:41:54.308Z,6.90
2019-03-18T07:44:00.994Z,6.45
2019-03-18T07:46:07.663Z,7.20
2019-03-18T07:48:14.395Z,8.75
2019-03-18T07:50:21.054Z,7.83
2019-03-18T07:52:27.828Z,5.80
2019-03-18T07:54:34.548Z,6.47
2019-03-18T07:56:41.204Z,6.00
2019-03-18T07:58:49.526Z,5.05
2019-03-18T08:00:56.345Z,4.97
2019-03-18T08:03:03.575Z,5.62
2019-03-18T08:05:11.835Z,5.15
2019-03-18T08:07:18.497Z,5.50
2019-03-18T08:09:25.161Z,5.22
2019-03-18T08:11:31.847Z,5.42
2019-03-18T08:13:38.499Z,4.35
2019-03-18T08:15:45.162Z,4.78
2019-03-18T08:17:51.853Z,5.00
2019-03-18T08:19:58.520Z,5.33
2019-03-18T08:22:05.184Z,5.28
2019-03-18T08:24:11.977Z,4.00
2019-03-18T08:26:19.687Z,4.28
2019-03-18T08:28:26.341Z,4.10
2019-03-18T08:30:33.031Z,5.72
2019-03-18T08:32:39.690Z,3.72
2019-03-18T08:34:46.411Z,3.77
2019-03-18T08:36:53.164Z,3.83
2019-03-18T08:38:59.818Z,3.77
2019-03-18T08:41:06.481Z,5.28
2019-03-18T08:43:13.169Z,3.40
2019-03-18T08:45:19.836Z,3.90
2019-03-18T08:47:26.494Z,4.42
2019-03-18T08:49:33.177Z,3.40
2019-03-18T08:51:39.834Z,3.22
2019-03-18T08:53:46.499Z,3.60
2019-03-18T08:55:53.181Z,3.50
2019-03-18T08:57:59.839Z,2.92
2019-03-18T09:00:13.953Z,3.58
2019-03-18T09:02:20.640Z,3.42
2019-03-18T09:04:27.297Z,3.60
2019-03-18T09:06:33.962Z,3.20
2019-03-18T09:08:40.650Z,2.52
2019-03-18T09:10:47.317Z,3.05
2019-03-18T09:12:53.971Z,2.65
2019-03-18T09:15:00.656Z,2.35
2019-03-18T09:17:07.323Z,2.90
2019-03-18T09:19:13.989Z,14.15
2019-03-18T09:21:20.753Z,6.15
2019-03-18T09:23:27.401Z,3.30
2019-03-18T09:25:34.128Z,2.72
2019-03-18T09:27:40.809Z,2.95
2019-03-18T09:29:47.473Z,2.95
2019-03-18T09:31:54.126Z,2.87
2019-03-18T09:34:00.804Z,2.92
2019-03-18T09:36:08.463Z,2.62
2019-03-18T09:38:15.131Z,2.70
2019-03-18T09:40:21.809Z,2.70
2019-03-18T09:42:28.473Z,3.37
2019-03-18T09:44:35.166Z,2.80
2019-03-18T09:46:41.862Z,3.25
2019-03-18T09:48:48.623Z,3.20
2019-03-18T09:50:55.361Z,3.02
2019-03-18T09:53:02.051Z,2.60
2019-03-18T09:55:09.920Z,3.08
2019-03-18T09:57:25.349Z,3.62
2019-03-18T09:59:25.048Z,2.70
2019-03-18T10:01:31.779Z,2.85
2019-03-18T10:03:38.453Z,3.33
2019-03-18T10:05:45.202Z,2.72
2019-03-18T10:07:51.986Z,3.10
2019-03-18T10:09:58.666Z,3.75
2019-03-18T10:12:05.384Z,3.20
2019-03-18T10:14:12.085Z,3.25
2019-03-18T10:16:18.813Z,3.00
2019-03-18T10:18:25.544Z,3.20
2019-03-18T10:20:32.193Z,3.70
2019-03-18T10:22:38.852Z,3.40
2019-03-18T10:24:45.467Z,3.05
2019-03-18T10:26:52.131Z,3.50
2019-03-18T10:28:58.788Z,3.52
2019-03-18T10:31:05.467Z,4.15
2019-03-18T10:33:13.121Z,4.12
2019-03-18T10:35:19.709Z,3.72
2019-03-18T10:37:27.409Z,4.10
2019-03-18T10:39:34.104Z,4.97
2019-03-18T10:41:40.764Z,4.10
2019-03-18T10:43:47.441Z,3.27
2019-03-18T10:45:54.105Z,3.42
2019-03-18T10:48:00.774Z,3.72
2019-03-18T10:50:18.675Z,4.22
2019-03-18T10:52:25.383Z,3.47
2019-03-18T10:54:32.132Z,4.33
2019-03-18T10:56:41.068Z,4.80
2019-03-18T10:58:47.218Z,4.92
2019-03-18T11:00:54.021Z,3.75
2019-03-18T11:03:00.800Z,3.22
2019-03-18T11:05:08.468Z,2.98
2019-03-18T11:07:15.231Z,2.90
2019-03-18T11:09:21.913Z,3.47
2019-03-18T11:11:28.649Z,3.40
2019-03-18T11:13:35.303Z,3.80
2019-03-18T11:15:41.984Z,2.70
2019-03-18T11:17:48.660Z,2.60
2019-03-18T11:19:58.665Z,2.60
2019-03-18T11:22:03.692Z,2.52
2019-03-18T11:24:10.346Z,2.95
2019-03-18T11:26:17.019Z,2.60
2019-03-18T11:28:23.734Z,2.80
2019-03-18T11:30:30.425Z,2.50
2019-03-18T11:32:37.083Z,2.58
2019-03-18T11:34:43.830Z,3.30
2019-03-18T11:36:50.557Z,3.02
2019-03-18T11:38:57.212Z,3.02
2019-03-18T11:41:03.836Z,5.03
2019-03-18T11:43:10.504Z,2.70
2019-03-18T11:45:17.966Z,3.25
2019-03-18T11:47:24.954Z,3.50
2019-03-18T11:49:39.696Z,3.15
2019-03-18T11:51:40.965Z,2.72
2019-03-18T11:53:47.652Z,2.95
2019-03-18T11:55:54.641Z,3.10
2019-03-18T11:58:01.262Z,3.17
2019-03-18T12:00:15.534Z,3.50
2019-03-18T12:02:27.571Z,3.35
2019-03-18T12:04:32.735Z,3.72
2019-03-18T12:06:38.866Z,3.20
2019-03-18T12:08:45.605Z,2.87
2019-03-18T12:10:52.190Z,2.85
2019-03-18T12:12:58.917Z,3.00
2019-03-18T12:15:09.884Z,3.80
2019-03-18T12:17:16.542Z,3.70
2019-03-18T12:19:23.368Z,3.72
2019-03-18T12:21:29.974Z,3.42
2019-03-18T12:23:36.729Z,3.33
2019-03-18T12:25:43.405Z,2.52
2019-03-18T12:27:50.060Z,2.92
2019-03-18T12:29:56.718Z,2.70
2019-03-18T12:32:03.412Z,3.87
2019-03-18T12:34:10.059Z,3.55
2019-03-18T12:36:16.654Z,3.70
2019-03-18T12:38:23.342Z,5.62
2019-03-18T12:40:30.407Z,3.60
2019-03-18T12:42:37.062Z,4.47
2019-03-18T12:44:43.755Z,3.58
2019-03-18T12:46:50.379Z,3.00
2019-03-18T12:48:58.039Z,3.37
2019-03-18T12:51:04.928Z,3.08
2019-03-18T12:53:11.587Z,3.37
2019-03-18T12:55:18.244Z,3.02
2019-03-18T12:57:24.924Z,3.10
2019-03-18T12:59:31.579Z,3.10
2019-03-18T13:01:38.252Z,3.10
2019-03-18T13:03:44.932Z,3.08
2019-03-18T13:05:52.344Z,3.00
2019-03-18T13:07:59.127Z,4.40
2019-03-18T13:10:09.094Z,4.03
2019-03-18T13:12:15.752Z,3.80
2019-03-18T13:14:22.413Z,3.30
2019-03-18T13:16:29.114Z,3.55
2019-03-18T13:18:35.749Z,3.62
2019-03-18T13:20:42.475Z,4.15
2019-03-18T13:22:49.162Z,4.75
2019-03-18T13:24:55.834Z,3.80
2019-03-18T13:27:02.498Z,3.62
2019-03-18T13:29:09.173Z,4.05
2019-03-18T13:31:15.832Z,3.90
2019-03-18T13:33:22.441Z,3.77
2019-03-18T13:35:29.132Z,3.90
2019-03-18T13:37:35.788Z,4.25
2019-03-18T13:39:42.522Z,4.33
2019-03-18T13:41:49.198Z,4.22
2019-03-18T13:43:55.892Z,3.95
2019-03-18T13:46:02.557Z,4.08
2019-03-18T13:48:09.266Z,4.45
2019-03-18T13:50:18.010Z,3.95
2019-03-18T13:52:24.667Z,3.98
2019-03-18T13:54:32.478Z,4.33
2019-03-18T13:56:39.399Z,4.30
2019-03-18T13:58:46.043Z,4.78
2019-03-18T14:00:52.732Z,4.72
2019-03-18T14:02:59.430Z,4.33
2019-03-18T14:05:08.180Z,4.42
2019-03-18T14:07:14.858Z,5.72
2019-03-18T14:09:21.522Z,5.30
2019-03-18T14:11:28.093Z,5.40
2019-03-18T14:13:34.775Z,4.35
2019-03-18T14:15:41.527Z,4.80
2019-03-18T14:17:48.187Z,3.52
2019-03-18T14:19:55.001Z,4.35
2019-03-18T14:22:01.669Z,4.15
2019-03-18T14:24:09.335Z,4.20
2019-03-18T14:26:16.028Z,4.40
2019-03-18T14:28:22.682Z,4.35
2019-03-18T14:30:29.408Z,3.77
2019-03-18T14:32:36.098Z,3.22
2019-03-18T14:34:42.745Z,2.42
2019-03-18T14:36:49.395Z,2.58
2019-03-18T14:38:56.085Z,2.65
2019-03-18T14:41:02.747Z,2.77
2019-03-18T14:43:09.465Z,2.70
2019-03-18T14:45:18.743Z,3.35
2019-03-18T14:47:25.388Z,3.90
2019-03-18T14:49:32.039Z,3.37
2019-03-18T14:51:45.691Z,3.98
2019-03-18T14:53:47.168Z,3.52
2019-03-18T14:55:53.854Z,4.28
2019-03-18T14:58:00.583Z,4.25
2019-03-18T15:00:19.968Z,4.50
2019-03-18T15:02:26.644Z,4.17
2019-03-18T15:04:33.311Z,4.37
2019-03-18T15:06:39.965Z,4.58
2019-03-18T15:08:46.694Z,3.80
2019-03-18T15:10:53.404Z,4.15
2019-03-18T15:13:00.064Z,4.45
2019-03-18T15:15:13.682Z,4.80
2019-03-18T15:17:20.369Z,4.58
2019-03-18T15:19:27.013Z,4.58
2019-03-18T15:21:33.669Z,5.12
2019-03-18T15:23:40.413Z,5.28
2019-03-18T15:25:47.066Z,4.85
2019-03-18T15:27:53.748Z,4.83
2019-03-18T15:30:00.481Z,4.90
2019-03-18T15:32:07.164Z,5.15
2019-03-18T15:34:13.817Z,4.92
2019-03-18T15:36:20.494Z,5.58
2019-03-18T15:38:27.154Z,6.33
2019-03-18T15:40:33.813Z,6.92
2019-03-18T15:42:40.497Z,5.70
2019-03-18T15:44:47.156Z,7.75
2019-03-18T15:46:53.890Z,8.08
2019-03-18T15:49:00.638Z,7.53
2019-03-18T15:51:07.306Z,8.80
2019-03-18T15:53:13.957Z,8.95
2019-03-18T15:55:23.595Z,6.85
2019-03-18T15:57:30.014Z,5.22
2019-03-18T15:59:36.990Z,5.15
2019-03-18T16:01:45.006Z,5.40
2019-03-18T16:03:51.685Z,7.58
2019-03-18T16:05:58.278Z,4.70
2019-03-18T16:08:04.949Z,4.83
2019-03-18T16:10:16.709Z,4.05
2019-03-18T16:12:23.355Z,3.72
2019-03-18T16:14:30.036Z,4.05
2019-03-18T16:16:37.687Z,3.58
2019-03-18T16:18:44.346Z,4.12
2019-03-18T16:20:51.174Z,3.83
2019-03-18T16:22:57.828Z,3.90
2019-03-18T16:25:05.357Z,3.83
2019-03-18T16:27:12.028Z,3.52
2019-03-18T16:29:18.678Z,3.30
2019-03-18T16:31:25.334Z,3.20
2019-03-18T16:33:32.003Z,3.20
2019-03-18T16:35:38.663Z,3.35
2019-03-18T16:37:45.519Z,3.37
2019-03-18T16:39:52.202Z,10.23
2019-03-18T16:41:58.857Z,3.40
2019-03-18T16:44:05.508Z,4.00
2019-03-18T16:46:12.115Z,3.87
2019-03-18T16:48:18.903Z,4.03
2019-03-18T16:50:30.456Z,4.25
2019-03-18T16:52:37.138Z,4.22
2019-03-18T16:54:43.867Z,3.60
2019-03-18T16:56:50.518Z,3.55
2019-03-18T16:58:57.193Z,4.20
2019-03-18T17:01:03.917Z,3.95
2019-03-18T17:03:11.522Z,4.28
2019-03-18T17:05:18.292Z,4.00
2019-03-18T17:07:24.944Z,3.98
2019-03-18T17:09:31.585Z,3.60
2019-03-18T17:11:38.341Z,3.52
2019-03-18T17:13:44.993Z,2.85
2019-03-18T17:15:52.937Z,3.40
2019-03-18T17:17:59.597Z,2.87
2019-03-18T17:20:12.875Z,3.10
2019-03-18T17:22:19.514Z,2.58
2019-03-18T17:24:26.414Z,3.45
2019-03-18T17:26:33.085Z,2.98
2019-03-18T17:28:39.740Z,2.77
2019-03-18T17:30:47.685Z,2.80
2019-03-18T17:32:54.336Z,2.75
2019-03-18T17:35:00.977Z,2.80
2019-03-18T17:37:07.664Z,5.10
2019-03-18T17:39:15.321Z,5.45
2019-03-18T17:41:21.983Z,8.38
2019-03-18T17:43:28.681Z,13.25
2019-03-18T17:45:35.416Z,16.17
2019-03-18T17:47:42.083Z,19.55
2019-03-18T17:49:48.842Z,24.55
2019-03-18T17:51:55.651Z,29.15
2019-03-18T17:54:02.313Z,26.68
2019-03-18T17:56:08.991Z,24.90
2019-03-18T17:58:15.779Z,26.60
2019-03-18T18:00:32.752Z,26.50
2019-03-18T18:02:39.723Z,26.40
2019-03-18T18:04:46.386Z,28.25
2019-03-18T18:06:53.041Z,43.33
2019-03-18T18:08:59.807Z,29.35
2019-03-18T18:11:06.471Z,24.20
2019-03-18T18:13:13.126Z,17.00
2019-03-18T18:15:20.820Z,15.18
2019-03-18T18:17:27.484Z,16.12
2019-03-18T18:19:34.137Z,18.48
2019-03-18T18:21:40.846Z,24.18
2019-03-18T18:23:47.492Z,32.23
2019-03-18T18:25:54.225Z,38.85
2019-03-18T18:28:02.450Z,35.80
2019-03-18T18:30:20.427Z,28.77
2019-03-18T18:32:27.089Z,28.50
2019-03-18T18:34:33.836Z,26.37
2019-03-18T18:36:40.502Z,28.67
2019-03-18T18:38:47.166Z,24.70
2019-03-18T18:40:53.858Z,23.42
2019-03-18T18:43:00.532Z,19.73
2019-03-18T18:45:10.190Z,21.12
2019-03-18T18:47:16.958Z,24.02
2019-03-18T18:49:23.619Z,16.25
2019-03-18T18:51:30.287Z,16.17
2019-03-18T18:53:37.001Z,17.92
2019-03-18T18:55:43.647Z,17.32
2019-03-18T18:57:50.312Z,18.35
2019-03-18T18:59:56.988Z,14.20
2019-03-18T19:02:03.719Z,11.83
2019-03-18T19:04:10.382Z,14.87
2019-03-18T19:06:17.065Z,14.90
2019-03-18T19:08:23.723Z,15.45
2019-03-18T19:10:31.739Z,16.00
2019-03-18T19:12:38.406Z,16.97
2019-03-18T19:14:45.059Z,15.32
2019-03-18T19:16:52.383Z,16.40
2019-03-18T19:18:59.069Z,19.20
2019-03-18T19:21:05.737Z,19.20
2019-03-18T19:23:12.476Z,18.77
2019-03-18T19:25:19.531Z,19.80
2019-03-18T19:27:26.193Z,20.77
2019-03-18T19:29:33.978Z,22.82
2019-03-18T19:31:42.510Z,24.25
2019-03-18T19:33:49.162Z,20.77
2019-03-18T19:35:55.844Z,20.52
2019-03-18T19:38:02.605Z,19.25
2019-03-18T19:40:20.787Z,19.30
2019-03-18T19:42:27.516Z,21.77
2019-03-18T19:44:34.212Z,19.37
2019-03-18T19:46:40.869Z,18.50
2019-03-18T19:48:47.594Z,15.90
2019-03-18T19:50:54.291Z,16.48
2019-03-18T19:53:01.013Z,13.65
2019-03-18T19:55:09.388Z,12.35
2019-03-18T19:57:16.084Z,11.70
2019-03-18T19:59:22.887Z,11.22
2019-03-18T20:01:29.570Z,11.85
2019-03-18T20:03:37.805Z,10.85
2019-03-18T20:05:44.559Z,10.18
2019-03-18T20:07:52.407Z,10.60
2019-03-18T20:09:59.113Z,10.53
2019-03-18T20:12:05.835Z,10.60
2019-03-18T20:14:12.512Z,10.18
2019-03-18T20:16:19.196Z,10.98
2019-03-18T20:18:25.861Z,11.05
2019-03-18T20:20:32.523Z,12.20
2019-03-18T20:22:39.566Z,13.50
2019-03-18T20:24:46.323Z,12.95
2019-03-18T20:26:53.038Z,14.28
2019-03-18T20:28:59.729Z,13.68
2019-03-18T20:31:06.467Z,13.65
2019-03-18T20:33:13.137Z,12.18
2019-03-18T20:35:28.841Z,12.03
2019-03-18T20:37:35.502Z,12.73
2019-03-18T20:39:43.716Z,11.63
2019-03-18T20:41:50.400Z,11.77
2019-03-18T20:43:57.057Z,10.82
2019-03-18T20:46:03.893Z,10.40
2019-03-18T20:48:10.649Z,10.70
2019-03-18T20:50:35.152Z,11.10
2019-03-18T20:52:42.015Z,10.65
2019-03-18T20:54:48.696Z,10.50
2019-03-18T20:56:55.401Z,9.73
2019-03-18T20:59:02.098Z,11.45
2019-03-18T21:01:08.818Z,10.38
2019-03-18T21:03:15.566Z,9.70
2019-03-18T21:05:24.924Z,9.20
2019-03-18T21:07:30.812Z,9.63
2019-03-18T21:09:38.937Z,10.10
2019-03-18T21:11:45.603Z,9.73
2019-03-18T21:13:57.046Z,8.98
2019-03-18T21:16:01.621Z,9.33
2019-03-18T21:18:08.275Z,9.03
2019-03-18T21:20:20.293Z,9.95
2019-03-18T21:22:28.751Z,9.15
2019-03-18T21:24:35.494Z,9.68
2019-03-18T21:26:42.158Z,10.18
2019-03-18T21:28:48.824Z,12.28
2019-03-18T21:30:56.577Z,9.68
2019-03-18T21:33:03.411Z,8.03
2019-03-18T21:35:11.162Z,9.15
2019-03-18T21:37:17.810Z,8.80
2019-03-18T21:39:24.493Z,8.20
2019-03-18T21:41:31.147Z,8.38
2019-03-18T21:43:37.800Z,8.85
2019-03-18T21:45:44.556Z,8.48
2019-03-18T21:47:51.199Z,8.98
2019-03-18T21:49:57.856Z,8.48
2019-03-18T21:52:04.812Z,8.00
2019-03-18T21:54:11.470Z,9.00
2019-03-18T21:56:18.128Z,8.23
2019-03-18T21:58:24.826Z,7.80
2019-03-18T22:00:31.468Z,7.85
2019-03-18T22:02:38.130Z,7.35
2019-03-18T22:04:44.876Z,7.75
2019-03-18T22:06:51.532Z,7.90
2019-03-18T22:08:58.186Z,7.65
2019-03-18T22:11:04.879Z,6.45
2019-03-18T22:13:11.586Z,7.67
2019-03-18T22:15:18.848Z,6.87
2019-03-18T22:17:25.524Z,6.95
2019-03-18T22:19:32.184Z,6.37
2019-03-18T22:21:39.909Z,6.80
2019-03-18T22:23:46.747Z,7.55
2019-03-18T22:25:53.405Z,6.90
2019-03-18T22:28:00.059Z,6.70
2019-03-18T22:30:11.154Z,6.95
2019-03-18T22:32:17.811Z,6.78
2019-03-18T22:34:24.593Z,7.05
2019-03-18T22:36:31.336Z,6.70
2019-03-18T22:38:37.991Z,7.60
2019-03-18T22:40:44.650Z,10.58
2019-03-18T22:42:51.333Z,8.13
2019-03-18T22:44:57.986Z,6.80
2019-03-18T22:47:04.651Z,6.25
2019-03-18T22:49:11.332Z,7.00
2019-03-18T22:51:18.195Z,7.12
2019-03-18T22:53:24.769Z,6.75
2019-03-18T22:55:31.460Z,6.62
2019-03-18T22:57:39.233Z,6.78
2019-03-18T22:59:45.874Z,6.25
2019-03-18T23:01:54.181Z,6.95
2019-03-18T23:04:01.007Z,6.65
2019-03-18T23:06:07.670Z,6.47
2019-03-18T23:08:14.354Z,7.17
2019-03-18T23:10:21.045Z,7.03
2019-03-18T23:12:28.897Z,6.78
2019-03-18T23:14:35.626Z,6.45
2019-03-18T23:16:42.352Z,6.78
2019-03-18T23:18:50.011Z,6.62
2019-03-18T23:20:56.693Z,6.92
2019-03-18T23:23:03.550Z,7.30
2019-03-18T23:25:10.500Z,7.25
2019-03-18T23:27:17.483Z,12.82
2019-03-18T23:29:25.211Z,9.65
2019-03-18T23:31:31.866Z,7.37
2019-03-18T23:33:38.658Z,7.12
2019-03-18T23:35:45.304Z,6.85
2019-03-18T23:37:51.962Z,7.33
2019-03-18T23:39:58.642Z,7.17
2019-03-18T23:42:05.351Z,8.20
2019-03-18T23:44:12.010Z,7.08
2019-03-18T23:46:18.873Z,6.70
2019-03-18T23:48:25.610Z,7.37
2019-03-18T23:50:32.253Z,8.30
2019-03-18T23:52:38.940Z,7.50
2019-03-18T23:54:45.515Z,7.37
2019-03-18T23:56:52.180Z,7.25
2019-03-18T23:58:58.791Z,7.15
